Time;durP1;ratioP1;P1;durP2;ratioP2;P2;SDS_P1;SDS_P2;PMS_P1;PMS_P2;Temp;Humidity;BMP_temperature;BMP_pressure;BME280_temperature;BME280_humidity;BME280_pressure;Samples;Min_cycle;Max_cycle;Signal;HPM_P1;HPM_P2
2022/03/05 00:00:38;;;;;;;35.60;18.27;;;;;;;-0.36;79.29;101946.59;5068472;28;20297;-69
2022/03/05 00:03:04;;;;;;;39.77;18.83;;;;;;;-0.37;79.33;101939.59;5069883;28;20702;-69
2022/03/05 00:05:31;;;;;;;37.90;18.77;;;;;;;-0.39;79.77;101952.16;5068542;28;20024;-70
2022/03/05 00:07:56;;;;;;;40.17;18.60;;;;;;;-0.42;79.77;101940.88;5069860;28;20285;-69
2022/03/05 00:10:22;;;;;;;37.73;19.30;;;;;;;-0.45;79.70;101946.44;5068764;28;20792;-69
2022/03/05 00:12:49;;;;;;;41.57;19.67;;;;;;;-0.48;80.12;101941.34;5067908;28;20047;-69
2022/03/05 00:15:15;;;;;;;38.30;19.87;;;;;;;-0.54;80.25;101938.16;5068060;28;20124;-70
2022/03/05 00:17:40;;;;;;;40.10;19.80;;;;;;;-0.50;79.93;101941.47;5068961;28;20925;-69
2022/03/05 00:20:06;;;;;;;40.83;20.60;;;;;;;-0.53;80.09;101947.88;5069189;28;20040;-69
2022/03/05 00:22:32;;;;;;;40.90;20.47;;;;;;;-0.52;80.22;101940.72;5068569;28;20032;-69
2022/03/05 00:24:58;;;;;;;43.77;20.70;;;;;;;-0.55;80.41;101946.28;5070297;28;20293;-69
2022/03/05 00:27:23;;;;;;;40.43;20.13;;;;;;;-0.56;80.05;101945.44;5068731;28;20082;-69
2022/03/05 00:29:49;;;;;;;38.40;19.83;;;;;;;-0.56;80.07;101952.53;5070365;28;20046;-69
2022/03/05 00:32:15;;;;;;;40.67;20.83;;;;;;;-0.60;80.48;101943.09;5069986;28;20060;-76
2022/03/05 00:34:40;;;;;;;43.33;21.33;;;;;;;-0.60;80.49;101948.41;5067798;28;20153;-76
2022/03/05 00:37:07;;;;;;;39.43;21.03;;;;;;;-0.64;80.36;101947.81;5069994;28;20593;-77
2022/03/05 00:39:32;;;;;;;41.03;21.43;;;;;;;-0.66;80.56;101949.72;5067187;28;20032;-77
2022/03/05 00:41:58;;;;;;;42.03;21.17;;;;;;;-0.71;80.88;101951.84;5068677;28;20370;-76
2022/03/05 00:44:23;;;;;;;42.93;22.00;;;;;;;-0.74;81.03;101947.59;5088091;28;20032;-76
2022/03/05 00:46:48;;;;;;;40.97;21.17;;;;;;;-0.80;81.43;101944.53;5067892;28;20029;-69
2022/03/05 00:49:14;;;;;;;43.47;20.97;;;;;;;-0.82;81.54;101944.63;5070920;28;20102;-69
2022/03/05 00:51:39;;;;;;;46.03;22.33;;;;;;;-0.85;81.62;101942.19;5073591;28;20032;-70
2022/03/05 00:54:05;;;;;;;43.20;22.17;;;;;;;-0.87;81.67;101947.63;5068723;28;20032;-69
2022/03/05 00:56:30;;;;;;;43.90;21.73;;;;;;;-0.90;81.80;101937.22;5066987;28;20043;-69
2022/03/05 00:58:55;;;;;;;43.70;21.20;;;;;;;-0.92;81.71;101932.97;5069061;28;20028;-69
2022/03/05 01:01:21;;;;;;;45.07;21.77;;;;;;;-0.89;81.73;101938.06;5064977;28;20495;-69
2022/03/05 01:03:46;;;;;;;42.03;22.67;;;;;;;-0.91;81.91;101935.50;5068593;28;20952;-69
2022/03/05 01:06:12;;;;;;;41.80;22.17;;;;;;;-0.95;81.98;101927.84;5070119;28;20158;-69
2022/03/05 01:08:37;;;;;;;44.37;21.53;;;;;;;-0.94;82.08;101935.75;5066036;28;20029;-69
2022/03/05 01:11:03;;;;;;;44.33;21.80;;;;;;;-0.97;82.55;101925.28;5065475;28;20406;-76
2022/03/05 01:13:28;;;;;;;46.57;23.40;;;;;;;-0.94;82.09;101932.22;5072291;28;20073;-76
2022/03/05 01:15:54;;;;;;;42.37;21.47;;;;;;;-0.99;82.31;101932.56;5069130;28;20052;-77
2022/03/05 01:18:19;;;;;;;46.10;23.40;;;;;;;-1.05;82.56;101928.53;5070158;28;20031;-76
2022/03/05 01:20:44;;;;;;;42.93;22.30;;;;;;;-1.01;82.23;101934.47;5068556;28;20052;-76
2022/03/05 01:23:10;;;;;;;43.97;21.93;;;;;;;-1.05;82.44;101933.84;5070812;28;20032;-76
2022/03/05 01:25:36;;;;;;;43.90;22.07;;;;;;;-1.06;82.52;101934.78;5067456;28;20118;-76
2022/03/05 01:28:02;;;;;;;42.87;21.00;;;;;;;-1.08;82.45;101933.19;5069984;28;20032;-76
2022/03/05 01:30:28;;;;;;;44.53;21.87;;;;;;;-1.11;82.50;101934.25;5068470;28;20297;-77
2022/03/05 01:32:53;;;;;;;42.77;22.33;;;;;;;-1.12;82.80;101921.09;5069004;28;20032;-76
2022/03/05 01:35:19;;;;;;;45.40;22.80;;;;;;;-1.13;82.59;101927.34;5070962;28;20173;-69
2022/03/05 01:37:44;;;;;;;43.47;21.90;;;;;;;-1.18;82.57;101925.03;5070354;28;20037;-69
2022/03/05 01:40:10;;;;;;;46.73;21.80;;;;;;;-1.17;82.58;101929.38;5072976;28;20036;-69
2022/03/05 01:42:36;;;;;;;44.00;22.13;;;;;;;-1.20;82.48;101925.16;5074097;28;20034;-69
2022/03/05 01:45:01;;;;;;;43.17;22.60;;;;;;;-1.23;82.54;101928.00;5072933;28;20665;-69
2022/03/05 01:47:27;;;;;;;44.53;22.30;;;;;;;-1.23;82.19;101928.00;5072336;28;20425;-69
2022/03/05 01:49:53;;;;;;;46.37;22.67;;;;;;;-1.27;82.98;101917.69;5072099;28;20032;-69
2022/03/05 01:52:18;;;;;;;43.47;22.60;;;;;;;-1.25;82.68;101921.09;5070662;28;20040;-70
2022/03/05 01:54:44;;;;;;;45.77;22.40;;;;;;;-1.29;82.84;101931.09;5073177;28;20028;-69
2022/03/05 01:57:11;;;;;;;48.43;23.67;;;;;;;-1.29;83.28;101927.56;5072769;28;20036;-69
2022/03/05 01:59:37;;;;;;;46.07;23.07;;;;;;;-1.30;83.19;101926.72;5072684;28;20027;-69
2022/03/05 02:02:03;;;;;;;44.87;22.90;;;;;;;-1.33;83.34;101931.41;5071142;28;20925;-69
2022/03/05 02:04:28;;;;;;;43.23;21.93;;;;;;;-1.36;82.80;101929.81;5072485;28;20035;-69
2022/03/05 02:06:54;;;;;;;45.50;23.07;;;;;;;-1.37;82.86;101928.13;5071487;28;20994;-69
2022/03/05 02:09:20;;;;;;;49.03;22.83;;;;;;;-1.39;82.83;101935.34;5069452;28;20046;-69
2022/03/05 02:11:45;;;;;;;47.00;23.03;;;;;;;-1.41;82.63;101935.47;5072158;28;20016;-69
2022/03/05 02:14:15;;;;;;;46.63;21.87;;;;;;;-1.43;83.31;101929.41;5071853;28;20043;-69
2022/03/05 02:16:41;;;;;;;44.13;22.10;;;;;;;-1.43;83.04;101939.19;5069377;28;20676;-69
2022/03/05 02:19:06;;;;;;;43.03;22.23;;;;;;;-1.46;82.86;101934.09;5070345;28;20305;-69
2022/03/05 02:21:32;;;;;;;44.53;21.67;;;;;;;-1.50;82.93;101938.75;5071771;28;20147;-69
2022/03/05 02:23:57;;;;;;;44.60;21.50;;;;;;;-1.50;83.19;101932.59;5073169;28;20064;-69
2022/03/05 02:26:22;;;;;;;47.37;22.23;;;;;;;-1.51;83.28;101936.19;5071644;28;20056;-76
2022/03/05 02:28:49;;;;;;;46.10;22.83;;;;;;;-1.56;83.45;101923.25;5072276;28;20037;-76
2022/03/05 02:31:14;;;;;;;45.53;21.77;;;;;;;-1.59;83.68;101920.78;5070064;28;20055;-76
2022/03/05 02:33:41;;;;;;;49.57;23.37;;;;;;;-1.62;83.90;101923.66;5071201;28;20385;-77
2022/03/05 02:36:06;;;;;;;47.47;23.30;;;;;;;-1.62;84.03;101928.97;5071056;28;20078;-76
2022/03/05 02:38:32;;;;;;;50.17;23.57;;;;;;;-1.66;84.04;101923.00;5071776;28;20377;-76
2022/03/05 02:40:57;;;;;;;45.53;22.40;;;;;;;-1.66;83.94;101919.50;5071143;28;20574;-76
2022/03/05 02:43:23;;;;;;;45.40;22.80;;;;;;;-1.67;83.83;101918.66;5069931;28;20032;-76
2022/03/05 02:45:50;;;;;;;42.63;21.63;;;;;;;-1.70;83.88;101916.19;5070559;28;20024;-76
2022/03/05 02:48:16;;;;;;;48.47;22.50;;;;;;;-1.72;84.21;101918.13;5071077;28;20032;-76
2022/03/05 02:50:43;;;;;;;47.50;22.77;;;;;;;-1.74;84.11;101920.88;5073542;28;20290;-76
2022/03/05 02:53:09;;;;;;;44.37;21.40;;;;;;;-1.77;83.98;101914.94;5075555;28;20303;-76
2022/03/05 02:55:35;;;;;;;48.87;22.93;;;;;;;-1.79;84.13;101916.84;5054048;28;20304;-76
2022/03/05 02:58:01;;;;;;;45.50;22.87;;;;;;;-1.83;84.02;101916.19;5070017;28;20040;-76
2022/03/05 03:00:27;;;;;;;45.70;22.60;;;;;;;-1.85;84.63;101911.94;5071432;28;20784;-76
2022/03/05 03:02:52;;;;;;;49.90;22.70;;;;;;;-1.85;84.14;101914.59;5071570;28;20282;-76
2022/03/05 03:05:18;;;;;;;47.03;22.73;;;;;;;-1.87;84.46;101909.41;5072637;28;20365;-69
2022/03/05 03:07:44;;;;;;;49.77;23.27;;;;;;;-1.91;84.67;101906.09;5070011;28;20036;-69
2022/03/05 03:10:11;;;;;;;44.60;22.30;;;;;;;-1.90;84.63;101907.78;5070375;28;20039;-69
2022/03/05 03:12:37;;;;;;;47.87;22.07;;;;;;;-1.91;84.67;101906.09;5069819;28;20293;-69
2022/03/05 03:15:04;;;;;;;46.27;23.53;;;;;;;-1.96;84.64;101900.25;5071804;28;20286;-69
2022/03/05 03:17:29;;;;;;;53.70;22.90;;;;;;;-1.96;84.89;101900.25;5069040;28;20356;-69
2022/03/05 03:19:55;;;;;;;48.83;23.17;;;;;;;-1.98;84.65;101896.84;5070090;28;20294;-69
2022/03/05 03:22:20;;;;;;;47.60;23.10;;;;;;;-2.01;84.77;101893.53;5069298;28;20114;-69
2022/03/05 03:24:46;;;;;;;47.17;22.73;;;;;;;-2.05;84.62;101890.25;5067966;28;20036;-69
2022/03/05 03:27:11;;;;;;;46.33;22.03;;;;;;;-2.06;85.18;101899.16;5070391;28;20529;-69
2022/03/05 03:29:37;;;;;;;45.70;22.37;;;;;;;-2.08;85.01;101898.41;5066480;28;20089;-76
2022/03/05 03:32:03;;;;;;;49.13;22.80;;;;;;;-2.10;85.12;101903.81;5070213;28;20082;-76
2022/03/05 03:34:29;;;;;;;48.73;22.87;;;;;;;-2.14;85.53;101898.81;5070116;28;20032;-76
2022/03/05 03:36:54;;;;;;;48.70;23.40;;;;;;;-2.21;85.52;101901.03;5071168;28;20294;-76
2022/03/05 03:39:20;;;;;;;47.37;22.93;;;;;;;-2.19;85.55;101903.59;5049924;28;20071;-76
2022/03/05 03:41:45;;;;;;;48.10;22.67;;;;;;;-2.21;85.43;101901.03;5069613;28;20028;-76
2022/03/05 03:44:10;;;;;;;49.47;23.90;;;;;;;-2.28;85.32;101900.59;5070346;28;20416;-76
2022/03/05 03:46:36;;;;;;;47.20;22.23;;;;;;;-2.28;85.47;101911.22;5070190;28;20055;-76
2022/03/05 03:49:03;;;;;;;45.43;22.07;;;;;;;-2.31;85.81;101907.91;5071024;28;20040;-76
2022/03/05 03:51:28;;;;;;;48.60;22.87;;;;;;;-2.32;86.00;101904.41;5070487;28;20036;-76
2022/03/05 03:53:53;;;;;;;50.83;23.07;;;;;;;-2.38;85.80;101913.63;5069433;28;20305;-75
2022/03/05 03:56:19;;;;;;;47.90;23.07;;;;;;;-2.41;85.84;101905.88;5070111;28;21667;-76
2022/03/05 03:58:44;;;;;;;48.63;23.57;;;;;;;-2.43;85.98;101914.88;5069585;28;20036;-76
2022/03/05 04:01:10;;;;;;;45.43;22.60;;;;;;;-2.42;85.68;101913.91;5068954;28;21649;-76
2022/03/05 04:03:35;;;;;;;50.43;23.67;;;;;;;-2.46;86.14;101915.06;5071427;28;21792;-76
2022/03/05 04:06:00;;;;;;;47.20;22.23;;;;;;;-2.49;86.01;101918.78;5069199;28;20063;-76
2022/03/05 04:08:41;;;;;;;45.57;22.50;;;;;;;-2.50;85.99;101916.22;5068960;28;20036;-76
2022/03/05 04:11:10;;;;;;;51.80;23.23;;;;;;;-2.55;85.88;101920.03;5068831;28;20028;-76
2022/03/05 04:13:36;;;;;;;48.67;22.77;;;;;;;-2.62;86.46;101913.44;5070686;28;20278;-76
2022/03/05 04:16:01;;;;;;;46.83;22.73;;;;;;;-2.62;86.57;101908.13;5066763;28;20297;-76
2022/03/05 04:18:26;;;;;;;47.73;23.53;;;;;;;-2.63;86.79;101918.84;5070529;28;20051;-76
2022/03/05 04:20:52;;;;;;;48.17;22.33;;;;;;;-2.65;86.93;101910.97;5070174;28;20052;-75
2022/03/05 04:23:17;;;;;;;48.10;23.07;;;;;;;-2.67;86.70;101927.94;5069567;28;20055;-76
2022/03/05 04:25:43;;;;;;;47.90;22.40;;;;;;;-2.69;87.22;101922.75;5070542;28;20059;-76
2022/03/05 04:28:08;;;;;;;51.20;23.07;;;;;;;-2.69;86.75;101917.44;5068852;28;20035;-76
2022/03/05 04:30:34;;;;;;;52.50;24.47;;;;;;;-2.74;87.05;101914.22;5069136;28;20993;-75
2022/03/05 04:33:00;;;;;;;48.87;22.87;;;;;;;-2.75;87.08;101917.81;5067562;28;20027;-76
2022/03/05 04:35:25;;;;;;;51.70;23.27;;;;;;;-2.78;86.74;101918.84;5070372;28;20321;-76
2022/03/05 04:37:51;;;;;;;53.00;24.20;;;;;;;-2.83;87.15;101920.09;5069688;28;20873;-76
2022/03/05 04:40:17;;;;;;;48.07;22.40;;;;;;;-2.82;87.34;101924.47;5066658;28;20119;-75
2022/03/05 04:42:43;;;;;;;51.97;23.87;;;;;;;-2.82;87.08;101927.13;5069017;28;20121;-76
2022/03/05 04:45:09;;;;;;;51.47;23.50;;;;;;;-2.84;87.42;101929.00;5069521;28;20027;-76
2022/03/05 04:47:35;;;;;;;52.43;24.07;;;;;;;-2.84;87.64;101923.69;5070071;28;20028;-76
2022/03/05 04:50:01;;;;;;;57.30;24.63;;;;;;;-2.85;87.73;101932.63;5070763;28;20032;-69
2022/03/05 04:52:26;;;;;;;51.93;23.60;;;;;;;-2.88;87.66;101931.88;5068139;28;20294;-69
2022/03/05 04:54:51;;;;;;;53.07;24.73;;;;;;;-2.86;87.89;101925.63;5070403;28;20112;-69
2022/03/05 04:57:17;;;;;;;49.70;23.87;;;;;;;-2.85;87.80;101932.63;5070442;28;20039;-69
2022/03/05 04:59:42;;;;;;;50.50;23.27;;;;;;;-2.86;87.88;101930.91;5066061;28;20119;-69
2022/03/05 05:02:08;;;;;;;52.50;23.90;;;;;;;-2.87;87.84;101935.34;5073143;28;20055;-69
2022/03/05 05:04:33;;;;;;;50.10;23.87;;;;;;;-2.88;87.86;101929.22;5066891;28;20040;-69
2022/03/05 05:06:59;;;;;;;51.93;24.67;;;;;;;-2.89;87.79;101935.47;5070628;28;20042;-69
2022/03/05 05:09:24;;;;;;;52.70;24.10;;;;;;;-2.90;87.97;101936.44;5072491;28;20032;-69
2022/03/05 05:11:50;;;;;;;55.23;25.40;;;;;;;-2.90;88.24;101936.44;5069016;28;20488;-69
2022/03/05 05:14:15;;;;;;;54.27;25.27;;;;;;;-2.90;87.94;101941.72;5071939;28;20047;-69
2022/03/05 05:16:40;;;;;;;58.77;25.93;;;;;;;-2.92;88.24;101932.16;5072241;28;20032;-69
2022/03/05 05:19:24;;;;;;;53.30;24.87;;;;;;;-2.91;88.02;101936.50;5073107;28;20114;-69
2022/03/05 05:21:54;;;;;;;55.30;25.50;;;;;;;-2.95;88.14;101935.88;5071185;28;20079;-69
2022/03/05 05:24:20;;;;;;;55.17;25.57;;;;;;;-2.94;88.02;101937.56;5072519;28;20320;-69
2022/03/05 05:26:45;;;;;;;58.60;26.13;;;;;;;-2.96;88.18;101946.56;5073663;28;21030;-69
2022/03/05 05:29:11;;;;;;;56.80;25.20;;;;;;;-2.93;87.93;101951.69;5070961;28;20143;-69
2022/03/05 05:31:36;;;;;;;54.10;25.87;;;;;;;-2.94;88.42;101956.13;5073304;28;20032;-69
2022/03/05 05:34:02;;;;;;;57.97;24.40;;;;;;;-2.94;88.86;101956.13;5072309;28;20102;-69
2022/03/05 05:36:27;;;;;;;58.73;25.37;;;;;;;-2.92;88.67;101954.22;5073491;28;20041;-75
2022/03/05 05:38:52;;;;;;;61.23;26.37;;;;;;;-2.90;88.42;101954.13;5069357;28;20427;-76
2022/03/05 05:41:18;;;;;;;54.73;25.20;;;;;;;-2.88;88.43;101960.19;5072131;28;20032;-76
2022/03/05 05:43:44;;;;;;;54.43;25.93;;;;;;;-2.89;89.17;101958.50;5072946;28;20162;-76
2022/03/05 05:46:10;;;;;;;58.47;26.43;;;;;;;-2.90;89.22;101956.78;5072203;28;20032;-76
2022/03/05 05:48:36;;;;;;;53.27;25.33;;;;;;;-2.94;89.08;101957.91;5072110;28;20302;-75
2022/03/05 05:51:01;;;;;;;60.23;26.67;;;;;;;-2.90;89.17;101957.66;5069994;28;20313;-76
2022/03/05 05:53:27;;;;;;;58.43;26.43;;;;;;;-2.88;88.87;101961.03;5072065;28;20073;-76
2022/03/05 05:55:53;;;;;;;57.90;24.77;;;;;;;-2.89;89.02;101954.03;5072116;28;20028;-75
2022/03/05 05:58:19;;;;;;;60.97;26.13;;;;;;;-2.88;89.08;101957.56;5072878;28;20058;-76
2022/03/05 06:00:45;;;;;;;58.60;26.33;;;;;;;-2.89;89.10;101964.63;5076699;28;20293;-75
2022/03/05 06:03:10;;;;;;;56.00;24.90;;;;;;;-2.89;88.93;101967.28;5073472;28;20342;-75
2022/03/05 06:05:36;;;;;;;56.50;23.87;;;;;;;-2.87;88.71;101961.88;5072825;28;20720;-75
2022/03/05 06:08:01;;;;;;;60.17;26.10;;;;;;;-2.88;88.76;101961.03;5069102;28;21130;-75
2022/03/05 06:10:26;;;;;;;61.43;26.83;;;;;;;-2.84;88.31;101960.84;5073054;28;20035;-75
2022/03/05 06:12:52;;;;;;;54.40;25.67;;;;;;;-2.88;88.40;101961.03;5069021;28;20032;-75
2022/03/05 06:15:17;;;;;;;57.73;25.03;;;;;;;-2.91;88.41;101958.59;5073011;28;20588;-76
2022/03/05 06:17:43;;;;;;;56.03;26.37;;;;;;;-2.94;88.71;101956.13;5072213;28;20071;-76
2022/03/05 06:20:09;;;;;;;56.03;25.53;;;;;;;-2.97;88.48;101953.66;5070468;28;20067;-75
2022/03/05 06:22:34;;;;;;;60.27;26.03;;;;;;;-2.99;88.47;101955.56;5070973;28;20035;-75
2022/03/05 06:25:00;;;;;;;55.97;24.80;;;;;;;-2.94;88.56;101961.44;5072563;28;20055;-75
2022/03/05 06:27:25;;;;;;;57.97;25.10;;;;;;;-2.94;88.50;101963.22;5072657;28;20036;-75
2022/03/05 06:29:50;;;;;;;56.73;24.43;;;;;;;-2.93;88.55;101965.78;5073612;28;21764;-75
2022/03/05 06:32:16;;;;;;;57.03;25.43;;;;;;;-2.94;88.62;101961.44;5072255;28;20035;-75
2022/03/05 06:34:41;;;;;;;58.57;24.93;;;;;;;-2.92;88.18;101961.34;5072873;28;21022;-75
2022/03/05 06:37:07;;;;;;;57.63;24.90;;;;;;;-2.96;88.52;101963.31;5072098;28;20043;-76
2022/03/05 06:39:32;;;;;;;58.87;26.23;;;;;;;-2.91;88.12;101960.38;5071320;28;20028;-75
2022/03/05 06:41:57;;;;;;;56.70;26.30;;;;;;;-2.93;88.46;101954.31;5071963;28;20126;-75
2022/03/05 06:44:23;;;;;;;61.80;25.47;;;;;;;-2.89;88.28;101966.44;5068962;28;20040;-75
2022/03/05 06:46:48;;;;;;;57.40;25.83;;;;;;;-2.89;88.32;101964.63;5070195;28;20059;-75
2022/03/05 06:49:14;;;;;;;55.73;24.80;;;;;;;-2.85;88.35;101967.13;5071214;28;20028;-75
2022/03/05 06:51:39;;;;;;;60.53;25.67;;;;;;;-2.82;88.37;101966.91;5068790;28;20089;-75
2022/03/05 06:54:05;;;;;;;59.67;25.93;;;;;;;-2.82;88.38;101967.75;5071671;28;20150;-75
2022/03/05 06:56:30;;;;;;;55.40;24.67;;;;;;;-2.78;88.32;101977.22;5067940;28;20070;-75
2022/03/05 06:58:56;;;;;;;59.03;24.90;;;;;;;-2.74;88.36;101972.59;5071110;28;20827;-69
2022/03/05 07:01:21;;;;;;;60.83;26.90;;;;;;;-2.67;88.70;101973.06;5070795;28;20163;-69
2022/03/05 07:03:46;;;;;;;58.47;25.13;;;;;;;-2.65;88.76;101982.63;5068832;28;20127;-69
2022/03/05 07:06:12;;;;;;;56.73;25.63;;;;;;;-2.55;88.39;101988.19;5072799;28;20028;-69
2022/03/05 07:08:37;;;;;;;57.03;26.17;;;;;;;-2.47;88.59;101982.41;5070584;28;20029;-69
2022/03/05 07:11:04;;;;;;;60.47;27.47;;;;;;;-2.35;88.71;101991.34;5074803;28;20630;-69
2022/03/05 07:13:29;;;;;;;63.20;28.37;;;;;;;-2.23;88.64;101996.72;5081790;28;20028;-69
2022/03/05 07:15:55;;;;;;;64.53;33.57;;;;;;;-2.08;88.27;102001.97;5083136;28;20745;-68
2022/03/05 07:18:21;;;;;;;75.33;44.00;;;;;;;-1.95;87.69;102008.19;5079899;28;20046;-69
2022/03/05 07:20:46;;;;;;;63.03;31.00;;;;;;;-1.81;87.05;102012.59;5088244;28;20036;-75
2022/03/05 07:23:11;;;;;;;62.23;31.30;;;;;;;-1.67;86.67;102010.81;5082859;28;20108;-69
2022/03/05 07:25:39;;;;;;;54.17;28.97;;;;;;;-1.49;85.97;102004.25;5073589;28;20102;-69
2022/03/05 07:28:09;;;;;;;62.33;31.33;;;;;;;-1.34;85.43;102009.50;5076991;28;20272;-69
2022/03/05 07:30:38;;;;;;;62.07;31.27;;;;;;;-1.19;84.55;102016.41;5075650;28;20296;-69
2022/03/05 07:33:04;;;;;;;55.57;27.53;;;;;;;-1.04;83.80;102009.16;5081510;28;20340;-69
2022/03/05 07:35:29;;;;;;;54.83;26.53;;;;;;;-0.89;83.55;102002.75;5075509;28;20289;-70
2022/03/05 07:37:54;;;;;;;53.43;25.77;;;;;;;-0.71;82.65;102005.06;5073925;28;20328;-70
2022/03/05 07:40:20;;;;;;;56.13;27.17;;;;;;;-0.57;82.28;101999.63;5073729;28;20088;-70
2022/03/05 07:42:45;;;;;;;56.93;25.80;;;;;;;-0.41;81.12;101996.72;5073984;28;20063;-69
2022/03/05 07:45:11;;;;;;;57.97;26.33;;;;;;;-0.27;81.06;102002.81;5075425;28;20036;-70
2022/03/05 07:47:37;;;;;;;57.13;26.63;;;;;;;-0.13;80.21;102005.34;5074486;28;20024;-70
2022/03/05 07:50:03;;;;;;;54.50;27.43;;;;;;;-0.05;79.30;102002.94;5067166;28;20086;-70
2022/03/05 07:52:28;;;;;;;54.87;28.13;;;;;;;0.10;79.12;101998.28;5068948;28;20302;-70
2022/03/05 07:54:53;;;;;;;55.60;27.93;;;;;;;0.33;79.04;102011.72;5068306;28;20408;-70
2022/03/05 07:57:19;;;;;;;56.73;27.73;;;;;;;0.48;78.30;102004.38;5066055;28;20189;-76
2022/03/05 07:59:44;;;;;;;55.53;27.23;;;;;;;0.58;77.24;102016.03;5068916;28;20043;-76
2022/03/05 08:02:10;;;;;;;54.50;26.97;;;;;;;0.69;76.56;102017.03;5069378;28;20036;-76
2022/03/05 08:04:36;;;;;;;51.87;26.50;;;;;;;0.78;76.25;102013.66;5067036;28;20705;-76
2022/03/05 08:07:02;;;;;;;55.33;26.70;;;;;;;0.92;76.19;102028.59;5069111;28;20190;-76
2022/03/05 08:09:27;;;;;;;51.57;25.23;;;;;;;1.13;76.01;102031.38;5068844;28;20041;-76
2022/03/05 08:11:52;;;;;;;52.87;27.97;;;;;;;1.38;75.14;102030.28;5072288;28;20104;-76
2022/03/05 08:14:17;;;;;;;49.77;25.23;;;;;;;1.51;74.44;102030.19;5069010;28;20674;-76
2022/03/05 08:16:43;;;;;;;49.83;25.53;;;;;;;1.50;73.58;102034.66;5066299;28;20074;-71
2022/03/05 08:19:08;;;;;;;51.30;25.30;;;;;;;1.61;72.88;102030.28;5069152;28;20123;-70
2022/03/05 08:21:34;;;;;;;52.80;24.93;;;;;;;1.77;72.70;102028.06;5068974;28;20084;-70
2022/03/05 08:23:59;;;;;;;46.97;24.00;;;;;;;1.84;71.88;102034.59;5067621;28;20496;-71
2022/03/05 08:26:24;;;;;;;52.47;25.47;;;;;;;1.93;72.51;102027.66;5069728;28;20029;-70
2022/03/05 08:28:50;;;;;;;50.07;25.20;;;;;;;2.09;71.93;102031.75;5065344;28;20047;-71
2022/03/05 08:31:15;;;;;;;49.37;25.30;;;;;;;2.09;71.02;102035.25;5067590;28;20055;-71
2022/03/05 08:33:41;;;;;;;46.77;23.90;;;;;;;2.23;70.97;102033.25;5067780;28;20043;-71
2022/03/05 08:36:07;;;;;;;50.20;24.70;;;;;;;2.36;70.59;102034.78;5068439;28;20032;-71
2022/03/05 08:38:34;;;;;;;46.83;24.23;;;;;;;2.46;69.50;102040.22;5086928;28;20031;-71
2022/03/05 08:41:01;;;;;;;49.07;24.90;;;;;;;2.53;69.43;102044.06;5068504;28;20298;-71
2022/03/05 08:43:26;;;;;;;46.63;24.57;;;;;;;2.67;68.98;102042.06;5065284;28;20036;-71
2022/03/05 08:45:52;;;;;;;49.33;25.03;;;;;;;2.90;68.90;102039.22;5066288;28;20039;-71
2022/03/05 08:48:17;;;;;;;49.77;26.97;;;;;;;3.16;68.13;102045.84;5068607;28;20063;-71
2022/03/05 08:50:43;;;;;;;48.53;27.33;;;;;;;3.31;67.22;102026.75;5065499;28;20029;-71
2022/03/05 08:53:08;;;;;;;52.27;30.17;;;;;;;3.59;66.58;102037.69;5068759;28;20036;-71
2022/03/05 08:55:34;;;;;;;50.00;25.40;;;;;;;3.78;66.72;102032.41;5065291;28;20616;-71
2022/03/05 08:57:59;;;;;;;46.80;24.53;;;;;;;3.97;64.91;102036.09;5068399;28;20377;-71
2022/03/05 09:00:25;;;;;;;47.27;24.63;;;;;;;3.97;64.45;102038.78;5068314;28;20111;-74
2022/03/05 09:02:50;;;;;;;46.67;24.97;;;;;;;4.02;64.23;102036.53;5070570;28;20097;-74
2022/03/05 09:05:16;;;;;;;46.57;24.63;;;;;;;4.19;63.77;102022.44;5067885;28;20419;-80
2022/03/05 09:07:42;;;;;;;46.67;25.43;;;;;;;4.59;63.78;102025.94;5068830;28;20507;-81
2022/03/05 09:10:08;;;;;;;47.23;24.90;;;;;;;4.91;63.42;102027.44;5068949;28;20039;-81
2022/03/05 09:12:34;;;;;;;45.03;24.23;;;;;;;5.17;61.02;102019.56;5067319;28;20039;-81
2022/03/05 09:14:59;;;;;;;46.07;24.43;;;;;;;5.40;60.63;102029.97;5066280;28;20028;-82
2022/03/05 09:17:25;;;;;;;45.40;25.43;;;;;;;5.58;59.92;102022.78;5067577;28;20028;-82
2022/03/05 09:19:50;;;;;;;44.73;24.53;;;;;;;5.89;59.52;102021.63;5067983;28;20024;-83
2022/03/05 09:22:17;;;;;;;46.37;24.37;;;;;;;6.10;57.64;102021.34;5069173;28;20072;-78
2022/03/05 09:24:42;;;;;;;48.53;25.20;;;;;;;6.01;57.04;102022.25;5068281;28;20031;-77
2022/03/05 09:27:09;;;;;;;46.10;24.47;;;;;;;6.21;56.93;102026.47;5068173;28;20400;-77
2022/03/05 09:29:35;;;;;;;43.70;25.50;;;;;;;6.11;56.26;102020.34;5067682;28;20764;-77
2022/03/05 09:32:00;;;;;;;48.13;25.97;;;;;;;6.51;57.30;102027.09;5067632;28;20799;-79
2022/03/05 09:34:26;;;;;;;43.67;26.07;;;;;;;6.65;56.17;102031.09;5066860;28;20032;-78
2022/03/05 09:36:52;;;;;;;45.40;25.63;;;;;;;6.88;55.58;102023.34;5069050;28;20428;-79
2022/03/05 09:39:18;;;;;;;45.23;24.87;;;;;;;7.00;55.16;102018.50;5069951;28;20387;-73
2022/03/05 09:41:43;;;;;;;43.33;25.07;;;;;;;7.13;54.05;102015.38;5067051;28;20020;-79
2022/03/05 09:44:09;;;;;;;42.77;24.47;;;;;;;7.56;53.84;102016.25;5067380;28;20054;-79
2022/03/05 09:46:35;;;;;;;44.23;25.37;;;;;;;7.88;53.07;102019.22;5066911;28;20126;-79
2022/03/05 09:49:03;;;;;;;43.30;24.23;;;;;;;8.10;52.05;102017.72;5066804;28;20035;-79
2022/03/05 09:51:28;;;;;;;42.50;25.37;;;;;;;8.32;51.35;102020.78;5069344;28;20024;-79
2022/03/05 09:53:55;;;;;;;43.67;24.53;;;;;;;8.51;50.91;102023.19;5069800;28;20024;-79
2022/03/05 09:56:21;;;;;;;43.03;25.40;;;;;;;8.68;51.32;102020.50;5071191;28;20051;-79
2022/03/05 09:58:47;;;;;;;41.27;25.80;;;;;;;8.78;49.80;102026.53;5072342;28;20036;-73
2022/03/05 10:01:14;;;;;;;40.27;24.60;;;;;;;9.09;50.62;102026.66;5069470;28;20059;-73
2022/03/05 10:03:44;;;;;;;42.87;25.43;;;;;;;9.29;49.52;102027.09;5073680;28;20582;-73
2022/03/05 10:06:29;;;;;;;43.80;25.70;;;;;;;9.32;49.19;102022.38;5071525;28;20119;-73
2022/03/05 10:08:55;;;;;;;42.55;25.48;;;;;;;9.43;48.43;102025.53;5073344;28;20118;-73
2022/03/05 10:11:36;;;;;;;41.60;25.43;;;;;;;9.67;47.03;102020.19;5074043;28;20024;-80
2022/03/05 10:14:14;;;;;;;42.03;25.10;;;;;;;10.12;48.20;102018.56;5073220;28;20036;-79
2022/03/05 10:16:39;;;;;;;40.73;24.87;;;;;;;10.25;46.21;102024.22;5073539;28;20067;-79
2022/03/05 10:19:34;;;;;;;43.33;25.40;;;;;;;10.67;49.28;102024.75;5071351;28;20107;-79
2022/03/05 10:22:04;;;;;;;41.88;25.80;;;;;;;10.09;45.61;102024.31;5055360;28;20048;-79
2022/03/05 10:24:36;;;;;;;43.40;26.93;;;;;;;9.80;45.64;102025.84;5071801;28;20036;-80
2022/03/05 10:27:02;;;;;;;43.00;29.73;;;;;;;10.06;45.52;102022.84;5072457;28;20486;-80
2022/03/05 10:29:34;;;;;;;42.23;27.30;;;;;;;10.10;45.34;102026.88;5075439;28;20518;-80
2022/03/05 10:32:15;;;;;;;44.50;27.17;;;;;;;10.23;46.46;102026.25;5071799;28;20039;-80
2022/03/05 10:34:53;;;;;;;43.83;27.23;;;;;;;10.09;45.51;102029.75;5070430;28;20039;-80
2022/03/05 10:37:19;;;;;;;45.50;28.27;;;;;;;10.44;45.00;102016.66;5073398;28;20028;-80
2022/03/05 10:39:46;;;;;;;42.60;26.47;;;;;;;10.11;44.00;102022.28;5072203;28;20575;-80
2022/03/05 10:42:25;;;;;;;42.00;26.10;;;;;;;10.23;44.87;102025.44;5070479;28;20198;-80
2022/03/05 10:45:05;;;;;;;43.37;26.77;;;;;;;10.46;46.10;102022.75;5071523;28;20035;-80
2022/03/05 10:47:42;;;;;;;42.40;26.83;;;;;;;10.84;44.76;102032.72;5070348;28;20522;-80
2022/03/05 10:50:30;;;;;;;42.73;26.97;;;;;;;10.84;46.65;102027.28;5071032;28;20263;-80
2022/03/05 10:53:01;;;;;;;40.20;25.23;;;;;;;10.08;43.16;102022.66;5071889;28;20081;-80
2022/03/05 10:55:29;;;;;;;41.90;26.60;;;;;;;9.94;45.60;102022.41;5071222;28;20036;-79
2022/03/05 10:58:14;;;;;;;43.97;27.07;;;;;;;9.52;44.80;102026.34;5070809;28;20028;-79
2022/03/05 11:00:41;;;;;;;42.90;26.40;;;;;;;8.33;45.99;102027.88;5070605;28;20028;-79
2022/03/05 11:03:07;;;;;;;39.73;25.87;;;;;;;8.89;47.41;102022.63;5067515;28;20070;-73
2022/03/05 11:05:33;;;;;;;44.10;26.23;;;;;;;9.28;46.67;102025.41;5069676;28;20643;-73
2022/03/05 11:07:59;;;;;;;40.13;25.20;;;;;;;9.62;44.67;102024.25;5074087;28;20032;-84